createdAt,value
2017-10-01T00:00:08.826Z,98430.66
2017-10-01T00:02:37.098Z,98426.80
2017-10-01T00:05:05.329Z,98433.60
2017-10-01T00:07:33.579Z,98437.05
2017-10-01T00:10:01.822Z,98445.59
2017-10-01T00:12:30.069Z,98445.56
2017-10-01T00:14:58.335Z,98444.20
2017-10-01T00:17:26.578Z,98446.37
2017-10-01T00:19:54.830Z,98454.45
2017-10-01T00:22:23.105Z,98451.47
2017-10-01T00:24:51.352Z,98452.27
2017-10-01T00:27:19.597Z,98457.84
2017-10-01T00:29:47.850Z,98457.76
2017-10-01T00:32:16.097Z,98462.42
2017-10-01T00:34:45.117Z,98463.27
2017-10-01T00:37:13.366Z,98467.96
2017-10-01T00:39:42.377Z,98476.45
2017-10-01T00:42:10.642Z,98477.25
2017-10-01T00:44:38.888Z,98473.41
2017-10-01T00:47:07.141Z,98480.72
2017-10-01T00:49:35.475Z,98480.69
2017-10-01T00:52:03.725Z,98480.23
2017-10-01T00:54:32.745Z,98487.41
2017-10-01T00:57:01.005Z,98487.38
2017-10-01T00:59:30.021Z,98491.60
2017-10-01T01:01:58.274Z,98497.98
2017-10-01T01:04:27.291Z,98495.05
2017-10-01T01:06:55.545Z,98490.75
2017-10-01T01:09:24.558Z,98487.38
2017-10-01T01:11:52.806Z,98490.75
2017-10-01T01:14:21.817Z,98493.30
2017-10-01T01:16:50.078Z,98492.52
2017-10-01T01:19:19.091Z,98492.45
2017-10-01T01:21:47.342Z,98491.53
2017-10-01T01:24:16.349Z,98486.45
2017-10-01T01:26:44.605Z,98486.95
2017-10-01T01:29:13.612Z,98495.05
2017-10-01T01:31:41.869Z,98500.90
2017-10-01T01:34:10.881Z,98510.19
2017-10-01T01:36:39.141Z,98509.34
2017-10-01T01:39:07.389Z,98513.64
2017-10-01T01:41:35.648Z,98511.47
2017-10-01T01:44:03.981Z,98524.67
2017-10-01T01:46:33.008Z,98513.60
2017-10-01T01:49:01.258Z,98516.55
2017-10-01T01:51:29.517Z,98519.09
2017-10-01T01:53:58.529Z,98523.83
2017-10-01T01:56:26.781Z,98530.51
2017-10-01T01:58:55.797Z,98525.83
2017-10-01T02:01:24.092Z,98533.91
2017-10-01T02:03:52.330Z,98527.88
2017-10-01T02:06:21.346Z,98536.89
2017-10-01T02:08:49.593Z,98537.66
2017-10-01T02:11:18.616Z,98537.70
2017-10-01T02:13:46.866Z,98544.42
2017-10-01T02:16:15.893Z,98543.91
2017-10-01T02:18:44.145Z,98547.22
2017-10-01T02:21:12.410Z,98551.09
2017-10-01T02:23:41.426Z,98548.13
2017-10-01T02:26:09.681Z,98546.74
2017-10-01T02:28:38.693Z,98546.32
2017-10-01T02:31:06.962Z,98547.13
2017-10-01T02:33:35.973Z,98548.40
2017-10-01T02:36:04.233Z,98550.14
2017-10-01T02:38:32.482Z,98550.61
2017-10-01T02:41:00.736Z,98555.67
2017-10-01T02:43:28.990Z,98562.91
2017-10-01T02:45:57.245Z,98561.58
2017-10-01T02:48:25.493Z,98558.66
2017-10-01T02:50:54.520Z,98554.45
2017-10-01T02:53:22.765Z,98557.44
2017-10-01T02:55:51.788Z,98556.15
2017-10-01T02:58:20.029Z,98565.09
2017-10-01T03:00:48.285Z,98568.50
2017-10-01T03:03:16.538Z,98572.75
2017-10-01T03:05:44.797Z,98573.66
2017-10-01T03:08:13.044Z,98578.77
2017-10-01T03:10:41.306Z,98584.77
2017-10-01T03:13:10.322Z,98590.35
2017-10-01T03:15:38.589Z,98588.16
2017-10-01T03:18:06.838Z,98587.31
2017-10-01T03:20:35.094Z,98587.79
2017-10-01T03:23:03.342Z,98586.53
2017-10-01T03:25:31.589Z,98590.73
2017-10-01T03:27:59.851Z,98593.05
2017-10-01T03:30:28.871Z,98586.53
2017-10-01T03:32:57.125Z,98593.00
2017-10-01T03:35:26.138Z,98596.38
2017-10-01T03:37:54.394Z,98603.55
2017-10-01T03:40:23.406Z,98600.99
2017-10-01T03:42:51.662Z,98605.31
2017-10-01T03:45:20.677Z,98601.09
2017-10-01T03:47:48.937Z,98606.25
2017-10-01T03:50:17.954Z,98608.00
2017-10-01T03:52:46.209Z,98614.39
2017-10-01T03:55:14.462Z,98615.67
2017-10-01T03:57:42.719Z,98617.70
2017-10-01T04:00:10.969Z,98615.52
2017-10-01T04:02:39.231Z,98621.53
2017-10-01T04:05:07.483Z,98623.33
2017-10-01T04:07:36.492Z,98622.91
2017-10-01T04:10:04.747Z,98624.56
2017-10-01T04:12:33.770Z,98629.56
2017-10-01T04:15:02.018Z,98632.16
2017-10-01T04:17:31.037Z,98632.16
2017-10-01T04:19:59.295Z,98636.05
2017-10-01T04:22:27.550Z,98637.77
2017-10-01T04:24:56.565Z,98638.66
2017-10-01T04:27:24.825Z,98640.84
2017-10-01T04:29:53.846Z,98645.52
2017-10-01T04:32:22.092Z,98650.97
2017-10-01T04:34:51.121Z,98653.03
2017-10-01T04:37:19.369Z,98646.11
2017-10-01T04:39:47.622Z,98656.27
2017-10-01T04:42:15.881Z,98656.61
2017-10-01T04:44:44.130Z,98656.61
2017-10-01T04:47:12.381Z,98663.35
2017-10-01T04:49:40.629Z,98660.19
2017-10-01T04:52:09.658Z,98661.37
2017-10-01T04:54:37.902Z,98663.97
2017-10-01T04:57:06.914Z,98674.45
2017-10-01T04:59:35.170Z,98669.40
2017-10-01T05:02:04.186Z,98668.97
2017-10-01T05:04:32.430Z,98672.26
2017-10-01T05:07:00.682Z,98671.45
2017-10-01T05:09:28.937Z,98666.97
2017-10-01T05:11:57.193Z,98675.97
2017-10-01T05:14:25.438Z,98674.25
2017-10-01T05:16:54.453Z,98677.28
2017-10-01T05:19:22.697Z,98684.41
2017-10-01T05:21:50.952Z,98675.11
2017-10-01T05:24:19.196Z,98685.80
2017-10-01T05:26:47.447Z,98679.66
2017-10-01T05:29:16.456Z,98680.06
2017-10-01T05:31:44.700Z,98684.03
2017-10-01T05:34:13.717Z,98683.48
2017-10-01T05:36:41.957Z,98691.61
2017-10-01T05:39:10.209Z,98692.89
2017-10-01T05:41:38.458Z,98698.36
2017-10-01T05:44:06.920Z,98696.23
2017-10-01T05:46:35.178Z,98696.30
2017-10-01T05:49:04.180Z,98703.30
2017-10-01T05:51:32.499Z,98703.03
2017-10-01T05:54:00.741Z,98700.12
2017-10-01T05:56:28.989Z,98709.92
2017-10-01T05:58:58.002Z,98712.52
2017-10-01T06:01:26.250Z,98711.70
2017-10-01T06:03:54.492Z,98710.28
2017-10-01T06:06:22.746Z,98712.97
2017-10-01T06:11:17.358Z,98712.97
2017-10-01T06:13:45.600Z,98713.07
2017-10-01T06:16:14.610Z,98715.94
2017-10-01T06:18:42.857Z,98713.66
2017-10-01T06:21:11.872Z,98716.30
2017-10-01T06:23:40.853Z,98714.09
2017-10-01T06:26:09.090Z,98721.38
2017-10-01T06:28:37.345Z,98724.53
2017-10-01T06:31:05.585Z,98730.53
2017-10-01T06:33:34.602Z,98734.98
2017-10-01T06:36:02.854Z,98745.64
2017-10-01T06:38:31.871Z,98746.28
2017-10-01T06:41:00.118Z,98746.26
2017-10-01T06:43:29.133Z,98745.92
2017-10-01T06:45:57.369Z,98743.01
2017-10-01T06:48:25.618Z,98754.01
2017-10-01T06:50:53.857Z,98754.07
2017-10-01T06:53:22.121Z,98755.42
2017-10-01T06:55:51.218Z,98757.84
2017-10-01T06:58:19.474Z,98760.75
2017-10-01T07:00:48.481Z,98765.48
2017-10-01T07:03:16.729Z,98768.39
2017-10-01T07:05:44.969Z,98765.61
2017-10-01T07:08:13.226Z,98760.30
2017-10-01T07:10:41.479Z,98760.78
2017-10-01T07:13:10.515Z,98760.45
2017-10-01T07:15:38.782Z,98762.38
2017-10-01T07:18:07.033Z,98757.70
2017-10-01T07:20:35.279Z,98760.42
2017-10-01T07:23:03.532Z,98769.30
2017-10-01T07:25:31.790Z,98763.66
2017-10-01T07:28:00.050Z,98771.16
2017-10-01T07:30:28.305Z,98774.98
2017-10-01T07:32:57.343Z,98769.13
2017-10-01T07:35:25.585Z,98765.82
2017-10-01T07:37:53.846Z,98766.75
2017-10-01T07:40:22.861Z,98759.39
2017-10-01T07:42:51.117Z,98759.59
2017-10-01T07:45:19.369Z,98764.22
2017-10-01T07:47:47.626Z,98764.38
2017-10-01T07:50:15.875Z,98772.35
2017-10-01T07:52:44.125Z,98767.48
2017-10-01T07:55:12.374Z,98765.81
2017-10-01T07:57:41.398Z,98772.11
2017-10-01T08:00:09.646Z,98776.38
2017-10-01T08:02:38.674Z,98786.00
2017-10-01T08:05:06.923Z,98782.48
2017-10-01T08:07:35.943Z,98782.22
2017-10-01T08:10:04.189Z,98781.78
2017-10-01T08:12:33.208Z,98785.36
2017-10-01T08:15:01.479Z,98786.36
2017-10-01T08:17:29.738Z,98782.52
2017-10-01T08:19:58.754Z,98777.61
2017-10-01T08:22:27.004Z,98786.70
2017-10-01T08:24:56.023Z,98795.66
2017-10-01T08:27:24.277Z,98792.92
2017-10-01T08:29:52.538Z,98791.33
2017-10-01T08:32:21.570Z,98791.98
2017-10-01T08:34:49.823Z,98789.55
2017-10-01T08:37:18.085Z,98789.81
2017-10-01T08:39:47.096Z,98791.64
2017-10-01T08:42:15.361Z,98788.66
2017-10-01T08:44:44.394Z,98790.09
2017-10-01T08:47:12.642Z,98790.06
2017-10-01T08:49:40.898Z,98780.42
2017-10-01T08:52:09.917Z,98793.62
2017-10-01T08:54:38.170Z,98779.87
2017-10-01T08:57:07.285Z,98792.56
2017-10-01T08:59:35.545Z,98788.04
2017-10-01T09:02:04.561Z,98782.20
2017-10-01T09:04:32.817Z,98782.45
2017-10-01T09:07:01.835Z,98790.03
2017-10-01T09:09:30.098Z,98794.70
2017-10-01T09:11:58.345Z,98795.67
2017-10-01T09:14:26.594Z,98781.80
2017-10-01T09:16:54.841Z,98784.81
2017-10-01T09:19:23.198Z,98778.12
2017-10-01T09:21:51.447Z,98789.91
2017-10-01T09:24:19.702Z,98792.97
2017-10-01T09:26:47.960Z,98782.25
2017-10-01T09:29:16.222Z,98779.44
2017-10-01T09:31:44.467Z,98772.10
2017-10-01T09:34:12.726Z,98783.22
2017-10-01T09:36:40.966Z,98777.66
2017-10-01T09:39:09.220Z,98775.58
2017-10-01T09:41:37.462Z,98774.71
2017-10-01T09:44:06.483Z,98772.94
2017-10-01T09:46:34.720Z,98771.70
2017-10-01T09:49:03.730Z,98765.30
2017-10-01T09:51:32.750Z,98761.90
2017-10-01T09:54:00.989Z,98758.56
2017-10-01T09:56:30.014Z,98758.99
2017-10-01T09:58:58.266Z,98763.23
2017-10-01T10:01:27.288Z,98755.57
2017-10-01T10:03:55.535Z,98757.28
2017-10-01T10:06:24.555Z,98748.72
2017-10-01T10:08:52.789Z,98750.02
2017-10-01T10:11:21.805Z,98759.84
2017-10-01T10:13:50.050Z,98738.46
2017-10-01T10:16:19.068Z,98745.74
2017-10-01T10:18:47.312Z,98755.12
2017-10-01T10:21:15.569Z,98760.67
2017-10-01T10:23:43.812Z,98755.59
2017-10-01T10:26:12.071Z,98749.98
2017-10-01T10:28:41.157Z,98754.28
2017-10-01T10:31:10.167Z,98750.34
2017-10-01T10:33:39.105Z,98753.73
2017-10-01T10:36:07.444Z,98751.91
2017-10-01T10:38:35.701Z,98747.55
2017-10-01T10:41:05.816Z,98749.39
2017-10-01T10:43:34.128Z,98752.91
2017-10-01T10:46:02.399Z,98752.42
2017-10-01T10:48:30.665Z,98743.81
2017-10-01T10:50:58.919Z,98740.52
2017-10-01T10:53:27.932Z,98734.27
2017-10-01T10:55:56.169Z,98739.46
2017-10-01T10:58:24.417Z,98738.95
2017-10-01T11:00:52.663Z,98742.69
2017-10-01T11:03:20.910Z,98738.67
2017-10-01T11:05:49.909Z,98738.88
2017-10-01T11:08:18.158Z,98740.12
2017-10-01T11:10:46.399Z,98728.64
2017-10-01T11:13:14.657Z,98735.45
2017-10-01T11:15:42.902Z,98729.88
2017-10-01T11:18:11.913Z,98725.40
2017-10-01T11:20:40.169Z,98733.28
2017-10-01T11:23:09.173Z,98721.25
2017-10-01T11:25:37.430Z,98724.80
2017-10-01T11:28:05.670Z,98723.31
2017-10-01T11:30:33.912Z,98713.02
2017-10-01T11:33:02.153Z,98716.83
2017-10-01T11:35:31.265Z,98712.95
2017-10-01T11:37:59.509Z,98712.22
2017-10-01T11:40:27.758Z,98712.13
2017-10-01T11:42:55.992Z,98702.83
2017-10-01T11:45:24.236Z,98718.20
2017-10-01T11:47:52.478Z,98717.72
2017-10-01T11:50:20.733Z,98718.58
2017-10-01T11:52:48.977Z,98715.73
2017-10-01T11:55:17.982Z,98713.70
2017-10-01T11:57:46.997Z,98710.72
2017-10-01T12:00:15.234Z,98712.83
2017-10-01T12:02:43.487Z,98703.31
2017-10-01T12:05:11.718Z,98703.12
2017-10-01T12:07:39.971Z,98706.45
2017-10-01T12:10:08.978Z,98709.66
2017-10-01T12:12:37.227Z,98700.86
2017-10-01T12:15:06.234Z,98697.19
2017-10-01T12:17:35.239Z,98698.20
2017-10-01T12:20:03.478Z,98696.44
2017-10-01T12:22:31.781Z,98699.96
2017-10-01T12:25:00.789Z,98699.96
2017-10-01T12:27:29.066Z,98698.77
2017-10-01T12:29:57.301Z,98700.13
2017-10-01T12:32:25.534Z,98704.74
2017-10-01T12:34:53.780Z,98700.30
2017-10-01T12:37:22.022Z,98702.28
2017-10-01T12:39:50.275Z,98697.80
2017-10-01T12:42:18.509Z,98692.28
2017-10-01T12:44:46.763Z,98696.92
2017-10-01T12:47:15.774Z,98705.77
2017-10-01T12:49:44.021Z,98708.44
2017-10-01T12:52:12.265Z,98708.20
2017-10-01T12:54:40.515Z,98709.64
2017-10-01T12:57:08.758Z,98712.63
2017-10-01T12:59:37.778Z,98709.59
2017-10-01T13:02:11.937Z,98710.88
2017-10-01T13:04:40.177Z,98706.81
2017-10-01T13:07:08.419Z,98713.44
2017-10-01T13:09:37.432Z,98706.88
2017-10-01T13:12:05.676Z,98706.31
2017-10-01T13:14:34.693Z,98704.80
2017-10-01T13:17:02.932Z,98699.11
2017-10-01T13:19:31.186Z,98695.95
2017-10-01T13:21:59.431Z,98698.44
2017-10-01T13:24:27.698Z,98697.09
2017-10-01T13:26:55.937Z,98698.94
2017-10-01T13:29:24.181Z,98690.34
2017-10-01T13:31:52.432Z,98688.44
2017-10-01T13:34:20.681Z,98685.84
2017-10-01T13:36:49.693Z,98687.36
2017-10-01T13:39:17.937Z,98688.48
2017-10-01T13:41:46.195Z,98685.58
2017-10-01T13:44:14.432Z,98683.90
2017-10-01T13:46:42.681Z,98677.61
2017-10-01T13:49:11.685Z,98673.53
2017-10-01T13:51:39.937Z,98685.43
2017-10-01T13:54:08.944Z,98679.33
2017-10-01T13:56:37.963Z,98679.86
2017-10-01T13:59:06.207Z,98672.95
2017-10-01T14:01:35.213Z,98670.02
2017-10-01T14:04:03.453Z,98668.73
2017-10-01T14:06:31.708Z,98676.44
2017-10-01T14:08:59.962Z,98679.08
2017-10-01T14:11:28.212Z,98680.31
2017-10-01T14:13:56.457Z,98673.36
2017-10-01T14:16:24.712Z,98667.72
2017-10-01T14:18:52.949Z,98684.08
2017-10-01T14:21:21.199Z,98682.91
2017-10-01T14:23:50.205Z,98677.77
2017-10-01T14:26:18.452Z,98675.28
2017-10-01T14:28:46.701Z,98675.03
2017-10-01T14:31:24.284Z,98671.46
2017-10-01T14:33:52.530Z,98675.30
2017-10-01T14:36:20.770Z,98677.55
2017-10-01T14:38:49.025Z,98680.73
2017-10-01T14:41:17.274Z,98671.58
2017-10-01T14:43:45.518Z,98675.66
2017-10-01T14:46:14.536Z,98673.42
2017-10-01T14:48:42.773Z,98675.51
2017-10-01T14:51:11.789Z,98669.05
2017-10-01T14:53:40.038Z,98664.44
2017-10-01T14:56:09.054Z,98662.09
2017-10-01T14:58:37.297Z,98660.88
2017-10-01T15:01:05.545Z,98660.13
2017-10-01T15:03:33.782Z,98666.80
2017-10-01T15:06:02.036Z,98673.49
2017-10-01T15:08:31.094Z,98668.74
2017-10-01T15:11:00.111Z,98668.27
2017-10-01T15:13:29.113Z,98665.23
2017-10-01T15:15:58.133Z,98655.73
2017-10-01T15:18:26.373Z,98660.16
2017-10-01T15:20:55.389Z,98658.44
2017-10-01T15:23:23.635Z,98662.32
2017-10-01T15:25:53.395Z,98648.89
2017-10-01T15:28:21.638Z,98645.78
2017-10-01T15:30:50.651Z,98644.56
2017-10-01T15:33:18.889Z,98642.94
2017-10-01T15:35:47.905Z,98641.09
2017-10-01T15:38:16.154Z,98634.03
2017-10-01T15:40:44.404Z,98629.30
2017-10-01T15:43:12.650Z,98625.86
2017-10-01T15:45:40.899Z,98632.14
2017-10-01T15:48:09.898Z,98625.73
2017-10-01T15:50:38.145Z,98625.38
2017-10-01T15:53:06.384Z,98634.12
2017-10-01T15:55:34.624Z,98630.52
2017-10-01T15:58:02.873Z,98636.80
2017-10-01T16:00:31.120Z,98642.94
2017-10-01T16:02:59.358Z,98637.63
2017-10-01T16:05:27.612Z,98639.73
2017-10-01T16:07:56.610Z,98650.81
2017-10-01T16:10:25.634Z,98649.73
2017-10-01T16:12:53.869Z,98654.39
2017-10-01T16:15:22.885Z,98645.07
2017-10-01T16:17:51.137Z,98646.41
2017-10-01T16:20:19.385Z,98648.52
2017-10-01T16:22:47.629Z,98654.09
2017-10-01T16:25:15.864Z,98650.29
2017-10-01T16:27:44.878Z,98650.30
2017-10-01T16:30:13.129Z,98650.71
2017-10-01T16:32:42.145Z,98645.61
2017-10-01T16:35:10.398Z,98647.30
2017-10-01T16:37:39.428Z,98647.28
2017-10-01T16:40:07.689Z,98654.11
2017-10-01T16:42:35.947Z,98654.05
2017-10-01T16:45:04.978Z,98654.88
2017-10-01T16:47:33.229Z,98657.02
2017-10-01T16:50:01.490Z,98656.56
2017-10-01T16:52:30.497Z,98651.77
2017-10-01T16:54:58.759Z,98659.47
2017-10-01T16:57:27.777Z,98657.74
2017-10-01T16:59:56.021Z,98662.38
2017-10-01T17:02:25.035Z,98672.19
2017-10-01T17:04:53.281Z,98674.27
2017-10-01T17:07:21.538Z,98675.08
2017-10-01T17:09:49.782Z,98672.52
2017-10-01T17:12:18.034Z,98674.63
2017-10-01T17:14:46.283Z,98674.14
2017-10-01T17:17:14.533Z,98673.66
2017-10-01T17:19:42.782Z,98670.13
2017-10-01T17:22:11.034Z,98679.97
2017-10-01T17:24:39.278Z,98685.45
2017-10-01T17:27:07.553Z,98686.14
2017-10-01T17:29:35.796Z,98684.01
2017-10-01T17:32:04.046Z,98686.20
2017-10-01T17:34:32.294Z,98685.21
2017-10-01T17:37:01.332Z,98681.38
2017-10-01T17:39:29.570Z,98681.77
2017-10-01T17:41:58.581Z,98674.05
2017-10-01T17:44:26.827Z,98680.37
2017-10-01T17:46:55.834Z,98682.80
2017-10-01T17:49:24.853Z,98678.03
2017-10-01T17:51:53.101Z,98675.44
2017-10-01T17:54:22.113Z,98676.67
2017-10-01T17:56:50.357Z,98678.37
2017-10-01T17:59:19.385Z,98676.63
2017-10-01T18:01:47.630Z,98683.91
2017-10-01T18:04:16.649Z,98686.42
2017-10-01T18:06:44.894Z,98687.36
2017-10-01T18:09:13.917Z,98687.36
2017-10-01T18:11:42.194Z,98695.84
2017-10-01T18:14:10.496Z,98696.83
2017-10-01T18:16:38.752Z,98700.23
2017-10-01T18:19:07.016Z,98696.78
2017-10-01T18:21:35.421Z,98697.63
2017-10-01T18:24:03.674Z,98697.63
2017-10-01T18:26:32.708Z,98692.67
2017-10-01T18:29:00.962Z,98693.95
2017-10-01T18:31:29.214Z,98697.87
2017-10-01T18:33:58.229Z,98695.84
2017-10-01T18:36:26.488Z,98691.06
2017-10-01T18:38:55.705Z,98694.89
2017-10-01T18:41:24.045Z,98695.70
2017-10-01T18:43:53.058Z,98691.28
2017-10-01T18:46:22.073Z,98697.20
2017-10-01T18:48:50.373Z,98689.06
2017-10-01T18:51:18.629Z,98695.77
2017-10-01T18:53:46.882Z,98696.61
2017-10-01T18:56:15.329Z,98700.94
2017-10-01T18:58:43.870Z,98704.59
2017-10-01T19:01:12.162Z,98708.50
2017-10-01T19:03:40.449Z,98706.84
2017-10-01T19:06:08.724Z,98700.88
2017-10-01T19:08:36.965Z,98699.88
2017-10-01T19:11:05.316Z,98703.69
2017-10-01T19:13:34.396Z,98704.13
2017-10-01T19:16:03.430Z,98707.16
2017-10-01T19:18:31.677Z,98703.58
2017-10-01T19:20:59.918Z,98705.72
2017-10-01T19:23:28.165Z,98705.28
2017-10-01T19:25:56.418Z,98708.75
2017-10-01T19:28:24.679Z,98710.51
2017-10-01T19:30:53.695Z,98710.27
2017-10-01T19:33:21.950Z,98711.97
2017-10-01T19:35:50.963Z,98714.22
2017-10-01T19:38:19.210Z,98713.50
2017-10-01T19:40:48.226Z,98711.36
2017-10-01T19:43:16.481Z,98709.12
2017-10-01T19:45:45.491Z,98710.59
2017-10-01T19:48:13.755Z,98713.14
2017-10-01T19:50:42.006Z,98712.72
2017-10-01T19:53:10.257Z,98710.63
2017-10-01T19:55:38.541Z,98710.77
2017-10-01T19:58:06.757Z,98699.03
2017-10-01T20:00:35.014Z,98705.04
2017-10-01T20:03:03.266Z,98706.27
2017-10-01T20:05:31.517Z,98705.97
2017-10-01T20:07:59.766Z,98706.33
2017-10-01T20:10:28.013Z,98697.50
2017-10-01T20:12:56.261Z,98698.66
2017-10-01T20:15:24.517Z,98699.28
2017-10-01T20:17:52.783Z,98691.25
2017-10-01T20:20:21.796Z,98688.13
2017-10-01T20:22:50.040Z,98694.38
2017-10-01T20:25:18.286Z,98692.55
2017-10-01T20:27:47.296Z,98692.83
2017-10-01T20:30:15.543Z,98694.09
2017-10-01T20:32:43.785Z,98694.53
2017-10-01T20:35:12.041Z,98692.78
2017-10-01T20:37:41.050Z,98688.87
2017-10-01T20:40:09.286Z,98688.66
2017-10-01T20:42:38.292Z,98689.53
2017-10-01T20:45:06.525Z,98690.36
2017-10-01T20:47:34.840Z,98684.40
2017-10-01T20:50:03.077Z,98679.68
2017-10-01T20:52:31.325Z,98678.67
2017-10-01T20:54:59.627Z,98679.08
2017-10-01T20:57:27.940Z,98681.16
2017-10-01T20:59:56.994Z,98673.84
2017-10-01T21:02:25.241Z,98681.51
2017-10-01T21:04:53.481Z,98673.79
2017-10-01T21:07:21.743Z,98680.59
2017-10-01T21:09:49.994Z,98675.97
2017-10-01T21:12:18.237Z,98672.34
2017-10-01T21:14:46.485Z,98676.18
2017-10-01T21:17:14.726Z,98678.24
2017-10-01T21:19:42.970Z,98677.12
2017-10-01T21:22:11.208Z,98675.63
2017-10-01T21:24:39.457Z,98679.64
2017-10-01T21:27:07.736Z,98680.34
2017-10-01T21:29:35.973Z,98675.59
2017-10-01T21:32:04.278Z,98679.36
2017-10-01T21:34:32.525Z,98681.80
2017-10-01T21:37:00.771Z,98682.58
2017-10-01T21:39:29.789Z,98686.83
2017-10-01T21:41:58.028Z,98685.97
2017-10-01T21:44:26.265Z,98685.14
2017-10-01T21:46:54.542Z,98674.00
2017-10-01T21:49:22.781Z,98675.91
2017-10-01T21:51:51.782Z,98669.89
2017-10-01T21:54:20.029Z,98663.84
2017-10-01T21:56:48.304Z,98661.15
2017-10-01T21:59:16.548Z,98659.34
2017-10-01T22:01:44.797Z,98659.75
2017-10-01T22:04:13.046Z,98651.56
2017-10-01T22:06:42.050Z,98649.41
2017-10-01T22:09:11.057Z,98649.42
2017-10-01T22:11:39.309Z,98640.59
2017-10-01T22:14:08.313Z,98643.83
2017-10-01T22:16:36.571Z,98645.84
2017-10-01T22:19:05.580Z,98643.72
2017-10-01T22:21:33.833Z,98645.28
2017-10-01T22:24:02.839Z,98645.67
2017-10-01T22:26:32.005Z,98633.03
2017-10-01T22:29:00.253Z,98632.84
2017-10-01T22:31:28.503Z,98623.03
2017-10-01T22:33:56.737Z,98617.84
2017-10-01T22:36:24.993Z,98617.33
2017-10-01T22:38:53.227Z,98619.05
2017-10-01T22:41:21.624Z,98616.92
2017-10-01T22:43:49.864Z,98609.33
2017-10-01T22:46:18.974Z,98613.56
2017-10-01T22:48:47.220Z,98604.95
2017-10-01T22:51:15.458Z,98601.09
2017-10-01T22:53:43.704Z,98595.27
2017-10-01T22:56:11.942Z,98597.81
2017-10-01T22:58:40.192Z,98597.35
2017-10-01T23:01:08.434Z,98597.08
2017-10-01T23:03:36.693Z,98588.64
2017-10-01T23:06:04.937Z,98590.70
2017-10-01T23:08:33.186Z,98589.93
2017-10-01T23:11:01.433Z,98586.97
2017-10-01T23:13:29.688Z,98582.10
2017-10-01T23:15:58.689Z,98581.38
2017-10-01T23:18:26.948Z,98585.77
2017-10-01T23:20:55.956Z,98588.25
2017-10-01T23:23:24.202Z,98588.58
2017-10-01T23:25:52.444Z,98573.54
2017-10-01T23:28:20.689Z,98577.62
2017-10-01T23:30:48.935Z,98575.47
2017-10-01T23:33:17.947Z,98570.72
2017-10-01T23:35:46.970Z,98572.34
2017-10-01T23:38:15.222Z,98575.98
2017-10-01T23:40:43.465Z,98572.85
2017-10-01T23:43:11.709Z,98571.27
2017-10-01T23:45:39.967Z,98572.60
2017-10-01T23:48:08.204Z,98579.38
2017-10-01T23:50:37.230Z,98584.69
2017-10-01T23:53:05.473Z,98584.58
2017-10-01T23:55:34.488Z,98583.22
2017-10-01T23:58:02.745Z,98587.88
